Time;durP1;ratioP1;P1;durP2;ratioP2;P2;SDS_P1;SDS_P2;PMS_P1;PMS_P2;Temp;Humidity;BMP_temperature;BMP_pressure;BME280_temperature;BME280_humidity;BME280_pressure;Samples;Min_cycle;Max_cycle;Signal;HPM_P1;HPM_P2
2022/07/26 00:01:25;;;;;;;;;;;25.70;40.20;;;23.95;40.75;100603.81;12241226;19;19937;-91
2022/07/26 00:05:28;;;;;;;;;;;25.70;40.40;;;23.93;41.06;100644.03;12241974;19;20289;-90
2022/07/26 00:09:29;;;;;;;;;;;25.70;40.40;;;23.93;40.94;100632.53;12242380;19;19962;-91
2022/07/26 00:13:31;;;;;;;;;;;25.90;40.60;;;23.79;41.04;100586.91;12240844;19;19911;-91
2022/07/26 00:17:32;;;;;;;;;;;25.50;40.30;;;23.81;41.01;100619.56;12247236;19;19923;-91
2022/07/26 00:21:36;;;;;;;;;;;25.60;40.70;;;23.38;41.18;100549.72;12250063;19;19931;-90
2022/07/26 00:25:37;;;;;;;;;;;25.80;40.60;;;23.68;41.73;100605.91;12250855;19;19919;-90
2022/07/26 00:29:39;;;;;;;;;;;25.40;40.60;;;23.70;41.56;100603.09;12250177;19;19926;-90
2022/07/26 00:33:40;;;;;;;;;;;25.40;40.30;;;23.71;41.33;100602.06;12248202;19;20326;-90
2022/07/26 00:37:42;;;;;;;;;;;25.60;40.50;;;23.78;41.39;100603.91;12247179;19;19939;-91
2022/07/26 00:41:43;;;;;;;;;;;25.40;40.60;;;23.75;41.20;100609.59;12249489;19;19985;-91
2022/07/26 00:45:45;;;;;;;;;;;25.40;40.50;;;23.71;41.54;100594.97;12249990;19;19923;-92
2022/07/26 00:49:46;;;;;;;;;;;25.40;40.30;;;23.66;41.76;100567.13;12250564;19;19926;-91
2022/07/26 00:53:48;;;;;;;;;;;25.60;40.60;;;23.66;41.72;100564.47;12246746;19;19915;-90
2022/07/26 00:57:49;;;;;;;;;;;25.40;40.70;;;23.79;41.53;100600.25;12246913;19;19923;-90
2022/07/26 01:01:51;;;;;;;;;;;25.30;40.80;;;23.67;41.86;100587.44;12248205;19;19915;-90
2022/07/26 01:05:53;;;;;;;;;;;25.40;40.90;;;23.66;42.09;100575.94;12249519;19;19914;-91
2022/07/26 01:09:54;;;;;;;;;;;25.30;41.10;;;23.73;41.97;100619.59;12249631;19;19919;-91
2022/07/26 01:13:56;;;;;;;;;;;25.30;41.00;;;23.37;41.91;100569.38;12246826;19;19918;-91
2022/07/26 01:17:58;;;;;;;;;;;25.30;41.20;;;23.69;42.02;100634.25;12246650;19;19907;-91
2022/07/26 01:21:59;;;;;;;;;;;25.30;41.20;;;23.61;42.36;100616.44;12249132;19;19932;-91
2022/07/26 01:26:01;;;;;;;;;;;25.30;41.30;;;23.62;42.32;100614.59;12246829;19;19922;-91
2022/07/26 01:30:04;;;;;;;;;;;25.40;41.30;;;23.34;42.07;100569.72;12249493;19;19919;-90
2022/07/26 01:34:05;;;;;;;;;;;25.30;41.30;;;23.54;42.33;100615.47;12245253;19;20389;-91
2022/07/26 01:38:07;;;;;;;;;;;25.30;41.40;;;23.69;42.46;100638.75;12244963;19;19911;-91
2022/07/26 01:42:08;;;;;;;;;;;25.30;41.40;;;23.67;42.54;100654.09;12247825;19;20363;-91
2022/07/26 01:46:12;;;;;;;;;;;25.30;41.40;;;23.60;42.57;100648.59;12247566;19;19923;-90
2022/07/26 01:50:14;;;;;;;;;;;25.30;41.50;;;23.58;42.76;100642.63;12245819;19;20485;-91
2022/07/26 01:54:15;;;;;;;;;;;25.30;41.50;;;23.47;42.51;100632.34;12249692;19;20321;-92
2022/07/26 01:58:17;;;;;;;;;;;25.30;41.50;;;23.59;42.36;100655.78;12246696;19;19943;-92
2022/07/26 02:02:18;;;;;;;;;;;25.20;41.40;;;23.53;42.62;100650.31;12245309;19;20313;-91
2022/07/26 02:06:20;;;;;;;;;;;25.30;41.50;;;23.50;42.62;100640.00;12246961;19;19915;-90
2022/07/26 02:10:22;;;;;;;;;;;25.40;41.60;;;23.60;42.90;100665.44;12247640;19;19978;-92
2022/07/26 02:14:23;;;;;;;;;;;25.30;41.60;;;23.58;42.68;100667.44;12244906;19;19919;-91
2022/07/26 02:18:28;;;;;;;;;;;25.20;41.50;;;23.40;43.07;100630.34;12243814;19;19914;-92
2022/07/26 02:22:29;;;;;;;;;;;25.20;41.60;;;23.56;42.79;100658.78;12245252;19;20381;-91
2022/07/26 02:26:31;;;;;;;;;;;25.20;41.70;;;23.61;42.78;100663.63;12247289;19;19944;-92
2022/07/26 02:30:32;;;;;;;;;;;25.20;41.50;;;23.21;42.77;100596.09;12245236;19;19918;-91
2022/07/26 02:34:34;;;;;;;;;;;25.40;41.80;;;23.34;42.77;100620.38;12245627;19;20332;-93
2022/07/26 02:38:35;;;;;;;;;;;25.20;41.70;;;23.46;42.98;100642.16;12241236;19;20310;-93
2022/07/26 02:42:37;;;;;;;;;;;25.20;41.80;;;23.67;43.24;100672.75;12243043;19;19919;-92
2022/07/26 02:46:38;;;;;;;;;;;25.30;41.80;;;23.56;43.00;100668.63;12245674;19;19911;-93
2022/07/26 02:50:40;;;;;;;;;;;25.20;41.80;;;23.16;43.24;100606.41;12244513;19;19919;-91
2022/07/26 02:54:42;;;;;;;;;;;25.40;41.80;;;23.00;42.78;100583.31;12244384;19;20725;-91
2022/07/26 02:58:43;;;;;;;;;;;25.20;41.70;;;23.39;42.93;100660.66;12240857;19;19944;-90
2022/07/26 03:02:46;;;;;;;;;;;25.20;41.80;;;23.28;43.33;100650.38;12241231;19;19927;-93
2022/07/26 03:06:48;;;;;;;;;;;25.30;41.70;;;23.26;43.22;100657.69;12242598;19;19903;-92
2022/07/26 03:10:49;;;;;;;;;;;25.10;41.60;;;23.15;43.14;100642.88;12242101;19;20269;-92
2022/07/26 03:14:51;;;;;;;;;;;25.00;41.70;;;22.77;43.62;100593.78;12243261;19;19911;-92
2022/07/26 03:18:53;;;;;;;;;;;25.20;41.90;;;23.23;43.62;100668.69;12243348;19;19911;-92
2022/07/26 03:22:54;;;;;;;;;;;24.90;41.80;;;23.20;43.48;100671.69;12241874;19;19939;-91
2022/07/26 03:26:56;;;;;;;;;;;24.90;42.00;;;23.16;43.53;100662.38;12245450;19;19986;-92
2022/07/26 03:30:57;;;;;;;;;;;24.90;42.00;;;23.05;43.79;100649.41;12242311;19;20226;-93
2022/07/26 03:34:59;;;;;;;;;;;24.80;42.00;;;22.99;43.63;100636.75;12244601;19;19907;-92
2022/07/26 03:39:00;;;;;;;;;;;25.00;42.10;;;22.95;43.48;100626.41;12242059;19;19915;-92
2022/07/26 03:43:02;;;;;;;;;;;24.80;42.20;;;22.77;43.55;100599.13;12240687;19;19930;-92
2022/07/26 03:47:05;;;;;;;;;;;24.80;42.30;;;23.02;43.88;100649.72;12243049;19;19914;-91
2022/07/26 03:51:06;;;;;;;;;;;24.80;42.30;;;23.18;43.96;100676.34;12253854;19;19935;-92
2022/07/26 03:59:28;;;;;;;;;;;24.80;42.50;;;23.17;43.99;100677.38;12257335;19;19915;-93
2022/07/26 04:03:30;;;;;;;;;;;24.80;42.60;;;22.97;44.10;100643.06;12254071;19;20011;-92
2022/07/26 04:07:31;;;;;;;;;;;25.10;42.70;;;23.11;44.12;100657.53;12256939;19;19918;-91
2022/07/26 04:11:33;;;;;;;;;;;24.80;42.80;;;23.13;44.24;100666.19;12255971;19;19952;-92
2022/07/26 04:15:34;;;;;;;;;;;24.90;42.80;;;23.07;44.26;100666.06;12254326;19;20366;-92
2022/07/26 04:19:36;;;;;;;;;;;24.80;42.80;;;22.94;44.38;100659.34;12255817;19;20301;-92
2022/07/26 04:23:37;;;;;;;;;;;24.80;42.70;;;23.04;44.56;100685.88;12250376;19;19922;-91
2022/07/26 04:27:39;;;;;;;;;;;24.70;42.80;;;22.70;44.12;100646.03;12251204;19;20271;-91
2022/07/26 04:31:41;;;;;;;;;;;24.70;42.90;;;22.48;44.62;100619.06;12251894;19;19922;-94
2022/07/26 04:35:42;;;;;;;;;;;24.60;42.70;;;22.69;44.33;100658.53;12249440;19;19951;-91
2022/07/26 04:39:43;;;;;;;;;;;24.60;43.00;;;22.64;44.55;100660.84;12249693;19;19928;-91
2022/07/26 04:43:45;;;;;;;;;;;24.50;42.80;;;22.60;44.48;100666.66;12248403;19;19970;-93
2022/07/26 04:47:51;;;;;;;;;;;24.50;42.90;;;22.59;44.63;100665.00;12251475;19;19943;-91
2022/07/26 04:51:52;;;;;;;;;;;24.40;42.90;;;22.65;44.66;100690.94;12250854;19;19903;-91
2022/07/26 04:55:54;;;;;;;;;;;24.40;43.00;;;22.64;44.84;100686.63;12250456;19;19919;-92
2022/07/26 04:59:56;;;;;;;;;;;24.40;43.10;;;22.63;44.52;100690.28;12252053;19;20366;-90
2022/07/26 05:03:57;;;;;;;;;;;24.50;43.20;;;22.68;45.02;100698.59;12247146;19;19911;-92
2022/07/26 05:08:04;;;;;;;;;;;24.40;43.20;;;22.71;44.70;100707.13;12246702;19;20341;-92
2022/07/26 05:12:06;;;;;;;;;;;24.60;43.30;;;22.70;44.78;100694.78;12245230;19;19967;-92
2022/07/26 05:16:08;;;;;;;;;;;24.40;43.20;;;22.80;44.64;100707.94;12244886;19;19927;-92
2022/07/26 05:20:12;;;;;;;;;;;24.50;43.30;;;22.61;44.87;100677.16;12247713;19;19939;-91
2022/07/26 05:24:14;;;;;;;;;;;24.50;43.30;;;22.77;44.96;100710.13;12244481;19;20360;-91
2022/07/26 05:28:15;;;;;;;;;;;24.50;43.40;;;22.83;44.84;100710.28;12246751;19;20373;-92
2022/07/26 05:32:17;;;;;;;;;;;24.80;43.60;;;22.99;45.21;100741.47;12244902;19;19922;-91
2022/07/26 05:36:19;;;;;;;;;;;24.60;43.50;;;22.71;44.86;100679.63;12246309;19;20267;-93
2022/07/26 05:40:20;;;;;;;;;;;24.70;43.60;;;22.43;45.00;100634.69;12249714;19;19939;-92
2022/07/26 05:44:23;;;;;;;;;;;25.00;43.60;;;22.59;45.35;100676.47;12252136;19;19910;-92
2022/07/26 05:48:24;;;;;;;;;;;24.70;43.50;;;22.89;45.42;100733.59;12249352;19;19937;-91
2022/07/26 05:52:26;;;;;;;;;;;24.60;43.40;;;22.90;45.22;100737.94;12247131;19;19917;-92
2022/07/26 05:56:27;;;;;;;;;;;24.70;43.60;;;22.84;45.25;100717.25;12247725;19;19935;-92
2022/07/26 06:00:29;;;;;;;;;;;25.10;43.60;;;23.09;45.11;100746.63;12247133;19;19926;-91
2022/07/26 06:04:30;;;;;;;;;;;24.70;43.80;;;22.72;45.47;100673.34;12248617;19;19915;-92
2022/07/26 06:08:33;;;;;;;;;;;24.70;43.80;;;23.15;45.68;100724.66;12244556;19;19923;-91
2022/07/26 06:12:34;;;;;;;;;;;24.80;43.80;;;22.81;45.65;100663.50;12242469;19;20357;-91
2022/07/26 06:16:35;;;;;;;;;;;24.90;44.00;;;23.39;45.29;100759.28;12244061;19;19915;-92
2022/07/26 06:20:38;;;;;;;;;;;25.10;43.60;;;23.26;45.63;100737.63;12244140;19;19915;-87
2022/07/26 06:24:40;;;;;;;;;;;25.00;43.70;;;23.01;45.62;100686.19;12245332;19;20341;-89
2022/07/26 06:28:42;;;;;;;;;;;25.10;43.70;;;23.29;45.53;100733.81;12245192;19;19939;-89
2022/07/26 06:32:44;;;;;;;;;;;25.10;43.70;;;22.87;45.44;100671.69;12244099;19;19997;-88
2022/07/26 06:36:45;;;;;;;;;;;25.00;43.40;;;23.33;45.66;100737.78;12244456;19;19919;-89
2022/07/26 06:40:47;;;;;;;;;;;25.50;44.00;;;23.20;45.78;100732.97;12244346;19;19914;-88
2022/07/26 06:44:48;;;;;;;;;;;25.20;43.50;;;23.21;45.65;100731.16;12244398;19;19944;-88
2022/07/26 06:48:49;;;;;;;;;;;25.10;43.30;;;23.25;45.69;100741.31;12243983;19;19923;-88
2022/07/26 06:52:51;;;;;;;;;;;25.40;43.10;;;22.72;45.61;100654.69;12242504;19;20315;-89
2022/07/26 06:56:53;;;;;;;;;;;25.20;43.20;;;23.42;45.81;100753.63;12244020;19;20318;-90
2022/07/26 07:00:54;;;;;;;;;;;25.20;43.40;;;23.55;45.76;100769.09;12241099;19;19949;-88
2022/07/26 07:04:56;;;;;;;;;;;25.20;43.30;;;23.47;46.06;100754.97;12242694;19;20573;-89
2022/07/26 07:08:57;;;;;;;;;;;25.30;43.20;;;23.34;45.71;100742.97;12243286;19;19935;-88
2022/07/26 07:12:58;;;;;;;;;;;25.30;43.30;;;23.42;46.00;100761.59;12240197;19;20239;-89
2022/07/26 07:17:00;;;;;;;;;;;25.20;43.00;;;23.27;45.67;100738.47;12242692;19;20378;-88
2022/07/26 07:21:01;;;;;;;;;;;25.50;43.10;;;23.23;46.01;100711.31;12239545;19;19998;-89
2022/07/26 07:25:03;;;;;;;;;;;25.30;42.90;;;23.42;45.89;100734.97;12252258;19;20277;-89
2022/07/26 07:29:04;;;;;;;;;;;25.40;43.00;;;22.99;45.73;100671.38;12255048;19;19922;-89
2022/07/26 07:33:08;;;;;;;;;;;25.30;43.10;;;23.54;45.96;100750.59;12248928;19;19926;-90
2022/07/26 07:37:11;;;;;;;;;;;25.40;43.10;;;23.66;45.86;100767.91;12249622;19;20352;-88
2022/07/26 07:41:13;;;;;;;;;;;25.40;43.20;;;23.72;45.71;100769.13;12250231;19;19939;-88
2022/07/26 07:45:14;;;;;;;;;;;25.60;42.90;;;23.89;45.51;100792.06;12242207;19;19955;-88
2022/07/26 07:49:16;;;;;;;;;;;25.60;43.10;;;23.47;45.56;100725.63;12251397;19;19942;-88
2022/07/26 07:53:17;;;;;;;;;;;25.60;43.20;;;23.59;45.89;100710.94;12250598;19;19914;-89
2022/07/26 07:57:19;;;;;;;;;;;25.60;43.20;;;24.06;45.85;100766.16;12251096;19;19923;-89
2022/07/26 08:01:20;;;;;;;;;;;25.70;43.00;;;24.04;45.75;100737.00;12249472;19;19954;-89
2022/07/26 08:05:21;;;;;;;;;;;25.80;42.90;;;24.12;45.92;100738.00;12251800;19;19925;-88
2022/07/26 08:09:23;;;;;;;;;;;26.00;43.00;;;24.33;45.88;100750.72;12253988;19;19922;-90
2022/07/26 08:13:25;;;;;;;;;;;26.00;42.70;;;24.46;45.37;100765.19;12251647;19;19922;-90
2022/07/26 08:17:26;;;;;;;;;;;26.20;42.50;;;24.55;45.17;100759.81;12251410;19;19932;-90
2022/07/26 08:21:28;;;;;;;;;;;26.20;42.40;;;24.61;45.64;100753.81;12251515;19;19922;-91
2022/07/26 08:25:29;;;;;;;;;;;26.30;42.30;;;24.77;45.70;100766.22;12252183;19;20318;-90
2022/07/26 08:29:31;;;;;;;;;;;26.50;42.50;;;24.71;45.20;100736.53;12252684;19;19929;-89
2022/07/26 08:33:32;;;;;;;;;;;26.50;42.40;;;25.04;45.11;100789.75;12247598;19;19935;-90
2022/07/26 08:37:34;;;;;;;;;;;26.60;42.10;;;24.86;44.92;100746.47;12249230;19;19923;-90
2022/07/26 08:41:39;;;;;;;;;;;26.70;42.00;;;24.67;45.25;100716.53;12250590;19;20255;-90
2022/07/26 08:45:41;;;;;;;;;;;26.70;42.40;;;25.20;45.50;100788.84;12240413;19;20594;-89
2022/07/26 08:49:43;;;;;;;;;;;26.80;42.20;;;25.30;44.99;100785.91;12247445;19;19919;-89
2022/07/26 08:53:44;;;;;;;;;;;26.90;42.10;;;25.11;45.09;100747.94;12245465;19;20333;-89
2022/07/26 08:57:46;;;;;;;;;;;27.00;41.90;;;24.88;45.18;100697.19;12242528;19;20369;-89
2022/07/26 09:01:58;;;;;;;;;;;27.10;41.80;;;25.45;44.77;100789.47;12242911;19;19947;-90
2022/07/26 09:06:17;;;;;;;;;;;27.10;41.70;;;25.58;45.00;100805.72;12249350;19;20313;-90
2022/07/26 09:10:18;;;;;;;;;;;27.20;41.80;;;25.61;45.15;100793.81;12248486;19;19934;-89
2022/07/26 09:14:20;;;;;;;;;;;27.20;41.80;;;25.62;44.86;100798.16;12242659;19;20314;-90
2022/07/26 09:18:26;;;;;;;;;;;27.30;41.60;;;25.55;44.91;100789.22;12245289;19;19915;-90
2022/07/26 09:22:27;;;;;;;;;;;27.30;41.50;;;25.52;44.77;100810.94;12244107;19;19930;-91
2022/07/26 09:26:29;;;;;;;;;;;27.30;41.40;;;25.42;44.94;100799.69;12246214;19;19914;-90
2022/07/26 09:30:31;;;;;;;;;;;27.20;41.30;;;25.45;44.78;100810.03;12245949;19;19933;-89
2022/07/26 09:34:33;;;;;;;;;;;27.20;41.30;;;25.39;44.58;100796.34;12243114;19;19935;-89
2022/07/26 09:38:38;;;;;;;;;;;27.40;41.50;;;25.35;44.54;100783.53;12245310;19;19911;-90
2022/07/26 09:42:53;;;;;;;;;;;27.20;41.30;;;25.51;45.00;100801.28;12244259;19;20325;-88
2022/07/26 09:46:57;;;;;;;;;;;27.20;41.40;;;25.61;44.60;100804.53;12245707;19;19918;-90
2022/07/26 09:50:58;;;;;;;;;;;27.20;41.40;;;25.68;45.00;100807.28;12245738;19;19914;-90
2022/07/26 09:55:03;;;;;;;;;;;27.30;41.30;;;25.58;44.43;100791.53;12244717;19;20385;-90
2022/07/26 09:59:04;;;;;;;;;;;27.30;41.20;;;25.68;44.59;100812.66;12242718;19;19919;-91
2022/07/26 10:03:06;;;;;;;;;;;27.30;41.10;;;25.58;44.74;100805.72;12246151;19;19911;-91
2022/07/26 10:07:09;;;;;;;;;;;27.30;41.10;;;25.59;44.79;100820.75;12246330;19;20330;-91
2022/07/26 10:11:11;;;;;;;;;;;27.30;41.10;;;25.25;44.55;100767.75;12246441;19;20480;-91
2022/07/26 10:15:35;;;;;;;;;;;27.30;41.10;;;25.47;44.73;100810.69;12245855;19;19974;-90
2022/07/26 10:19:38;;;;;;;;;;;27.20;41.00;;;25.44;44.38;100800.31;12247460;19;19918;-90
2022/07/26 10:23:59;;;;;;;;;;;27.20;40.90;;;25.26;44.42;100731.97;12242959;19;19943;-91
2022/07/26 10:28:01;;;;;;;;;;;27.20;41.00;;;25.82;44.47;100793.97;12246708;19;19962;-90
2022/07/26 10:32:13;;;;;;;;;;;27.40;41.20;;;26.15;44.58;100798.97;12245827;19;20342;-90
2022/07/26 10:36:25;;;;;;;;;;;27.50;41.40;;;26.39;44.37;100791.69;12244291;19;19918;-90
2022/07/26 10:40:30;;;;;;;;;;;27.70;41.40;;;26.55;44.03;100801.38;12244317;19;19922;-91
2022/07/26 10:44:46;;;;;;;;;;;27.90;41.20;;;26.52;43.90;100781.16;12245848;19;19915;-89
2022/07/26 10:49:17;;;;;;;;;;;28.10;40.90;;;26.63;43.87;100798.59;12238183;19;19915;-91
2022/07/26 10:53:22;;;;;;;;;;;28.20;40.50;;;26.51;44.01;100781.31;12234126;19;19932;-89
2022/07/26 10:57:31;;;;;;;;;;;28.30;40.60;;;26.67;44.05;100810.59;12240023;19;19991;-90
2022/07/26 11:01:38;;;;;;;;;;;28.30;40.50;;;26.69;43.83;100824.63;12242348;19;19942;-89
2022/07/26 11:05:40;;;;;;;;;;;28.30;40.50;;;26.53;43.87;100787.34;12242596;19;19926;-89
2022/07/26 11:09:42;;;;;;;;;;;28.30;40.50;;;26.38;43.65;100758.72;12241574;19;19948;-90
2022/07/26 11:13:43;;;;;;;;;;;28.30;40.50;;;26.51;43.77;100774.13;12239889;19;20344;-90
2022/07/26 11:17:45;;;;;;;;;;;28.30;40.50;;;26.75;43.63;100813.16;12239621;19;19990;-89
2022/07/26 11:21:53;;;;;;;;;;;28.40;40.30;;;26.79;43.57;100810.91;12242379;19;19915;-89
2022/07/26 11:26:04;;;;;;;;;;;28.40;40.40;;;26.96;43.56;100825.75;12240752;19;19915;-88
2022/07/26 11:30:06;;;;;;;;;;;28.40;40.50;;;27.07;43.86;100805.66;12236221;19;20353;-88
2022/07/26 11:34:15;;;;;;;;;;;28.60;40.30;;;27.18;43.27;100815.91;12231602;19;19915;-88
2022/07/26 11:38:16;;;;;;;;;;;28.70;40.30;;;27.23;43.32;100816.16;12236434;19;19914;-87
2022/07/26 11:42:20;;;;;;;;;;;28.80;40.60;;;26.66;43.27;100734.75;12243121;19;19923;-86
2022/07/26 11:46:22;;;;;;;;;;;28.80;39.90;;;27.16;43.14;100823.28;12243846;19;19931;-89
2022/07/26 11:50:23;;;;;;;;;;;28.80;39.90;;;27.13;43.17;100819.13;12246158;19;19923;-87
2022/07/26 11:54:31;;;;;;;;;;;28.80;39.90;;;27.24;43.21;100812.44;12238500;19;19922;-87
2022/07/26 11:58:32;;;;;;;;;;;28.80;39.90;;;27.44;43.25;100807.28;12236249;19;19922;-89
2022/07/26 12:02:33;;;;;;;;;;;28.90;40.10;;;27.59;43.04;100804.50;12239020;19;19930;-89
2022/07/26 12:06:37;;;;;;;;;;;29.10;40.20;;;27.65;43.06;100789.47;12242962;19;19919;-89
2022/07/26 12:10:38;;;;;;;;;;;29.10;40.20;;;27.69;42.80;100794.25;12250090;19;19940;-88
2022/07/26 12:14:40;;;;;;;;;;;29.30;39.90;;;27.45;42.90;100762.50;12253851;19;19940;-89
2022/07/26 12:18:49;;;;;;;;;;;29.60;39.90;;;27.62;42.94;100804.09;12247055;19;20326;-88
2022/07/26 12:22:57;;;;;;;;;;;29.40;39.70;;;27.44;43.05;100785.81;12246543;19;20373;-88
2022/07/26 12:27:10;;;;;;;;;;;29.30;39.40;;;27.09;42.72;100750.00;12251716;19;20337;-89
2022/07/26 12:31:27;;;;;;;;;;;29.30;39.40;;;27.36;42.78;100829.69;12250048;19;20026;-88
2022/07/26 12:35:36;;;;;;;;;;;29.10;39.30;;;26.94;42.52;100768.81;12250360;19;19907;-87
2022/07/26 12:39:39;;;;;;;;;;;29.10;39.50;;;27.13;42.52;100829.03;12250187;19;19986;-88
2022/07/26 12:43:40;;;;;;;;;;;29.00;39.50;;;26.78;42.73;100796.69;12246526;19;19992;-87
2022/07/26 12:47:44;;;;;;;;;;;28.80;39.60;;;26.56;42.89;100824.47;12248955;19;19948;-88
2022/07/26 12:51:45;;;;;;;;;;;28.70;39.70;;;25.70;42.86;100757.94;12247678;19;19921;-88
2022/07/26 12:55:46;;;;;;;;;;;28.30;39.70;;;25.56;43.21;100839.84;12248388;19;20265;-87
2022/07/26 12:59:48;;;;;;;;;;;28.20;40.10;;;25.13;43.68;100868.84;12248519;19;19926;-88
2022/07/26 13:03:49;;;;;;;;;;;27.80;40.10;;;24.80;43.81;100899.44;12246176;19;19922;-89
2022/07/26 13:07:51;;;;;;;;;;;27.40;40.00;;;24.31;44.01;100875.53;12245238;19;19920;-87
2022/07/26 13:11:53;;;;;;;;;;;27.10;40.30;;;24.43;43.91;100943.56;12248433;19;20337;-89
2022/07/26 13:15:54;;;;;;;;;;;26.70;40.80;;;23.68;44.21;100859.22;12248131;19;19915;-90
2022/07/26 13:19:55;;;;;;;;;;;26.50;41.40;;;23.66;44.58;100903.09;12246088;19;19914;-90
2022/07/26 13:23:57;;;;;;;;;;;26.10;41.10;;;23.24;44.22;100856.88;12246349;19;19922;-89
2022/07/26 13:27:58;;;;;;;;;;;26.00;41.70;;;23.68;44.31;100949.88;12246773;19;19914;-90
2022/07/26 13:32:01;;;;;;;;;;;25.80;41.50;;;23.29;44.69;100902.53;12246680;19;19924;-89
2022/07/26 13:36:02;;;;;;;;;;;25.60;41.70;;;23.03;44.66;100865.31;12244294;19;19974;-89
2022/07/26 13:40:04;;;;;;;;;;;25.50;41.50;;;23.47;44.32;100926.38;12243684;19;19957;-88
2022/07/26 13:44:06;;;;;;;;;;;25.40;41.70;;;23.28;44.41;100911.53;12239738;19;19921;-89
2022/07/26 13:48:08;;;;;;;;;;;25.40;42.10;;;23.37;44.62;100926.53;12242772;19;19918;-89
2022/07/26 13:52:09;;;;;;;;;;;25.40;42.20;;;23.34;44.79;100942.84;12242594;19;19914;-89
2022/07/26 13:56:11;;;;;;;;;;;25.20;41.60;;;23.24;44.53;100933.31;12243060;19;19926;-90
2022/07/26 14:00:13;;;;;;;;;;;25.20;41.50;;;23.18;44.76;100926.81;12244502;19;20630;-90
2022/07/26 14:04:15;;;;;;;;;;;25.20;41.70;;;22.72;44.81;100843.72;12240586;19;19911;-90
2022/07/26 14:08:16;;;;;;;;;;;25.10;41.70;;;22.97;44.64;100893.44;12246759;19;20433;-91
2022/07/26 14:12:17;;;;;;;;;;;25.10;41.90;;;22.92;45.00;100887.72;12242613;19;20018;-89
2022/07/26 14:16:19;;;;;;;;;;;25.20;42.00;;;22.84;44.69;100869.06;12242917;19;19919;-90
2022/07/26 14:20:20;;;;;;;;;;;25.10;41.80;;;23.17;44.79;100914.50;12243913;19;19938;-89
2022/07/26 14:24:22;;;;;;;;;;;25.10;41.90;;;23.47;44.64;100961.03;12241081;19;19923;-91
2022/07/26 14:28:23;;;;;;;;;;;25.10;41.70;;;23.35;44.91;100944.50;12243121;19;20336;-90
2022/07/26 14:32:28;;;;;;;;;;;25.10;42.00;;;22.96;44.84;100867.81;12241274;19;22424;-90
2022/07/26 14:36:29;;;;;;;;;;;25.40;42.10;;;23.07;44.90;100885.31;12248127;19;20199;-91
2022/07/26 14:40:30;;;;;;;;;;;25.20;42.20;;;23.34;44.98;100929.53;12245772;19;20294;-91
2022/07/26 14:44:33;;;;;;;;;;;25.60;42.20;;;23.16;44.98;100894.16;12246242;19;19980;-90
2022/07/26 14:48:34;;;;;;;;;;;25.30;42.20;;;23.68;44.92;100976.56;12243997;19;19917;-89
2022/07/26 14:52:38;;;;;;;;;;;25.30;42.30;;;23.63;44.86;100965.56;12245537;19;20341;-92
2022/07/26 14:56:39;;;;;;;;;;;25.30;42.20;;;23.25;44.82;100906.53;12245826;19;20527;-92
2022/07/26 15:00:40;;;;;;;;;;;25.30;42.30;;;23.51;45.05;100957.03;12244583;19;19929;-90
2022/07/26 15:04:42;;;;;;;;;;;25.30;42.40;;;23.52;44.89;100960.53;12247671;19;19915;-91
2022/07/26 15:08:43;;;;;;;;;;;25.30;42.20;;;23.42;44.85;100939.38;12245590;19;19950;-91
2022/07/26 15:12:45;;;;;;;;;;;25.40;42.30;;;23.36;45.21;100926.69;12242987;19;19931;-91
2022/07/26 15:16:46;;;;;;;;;;;25.40;42.50;;;23.39;45.13;100927.19;12243137;19;19935;-91
2022/07/26 15:20:47;;;;;;;;;;;25.70;42.60;;;23.23;45.06;100886.38;12243460;19;19914;-90
2022/07/26 15:24:49;;;;;;;;;;;25.40;42.60;;;23.04;45.28;100855.50;12245447;19;20346;-92
2022/07/26 15:28:50;;;;;;;;;;;25.50;42.70;;;23.33;45.27;100893.22;12247015;19;19923;-90
2022/07/26 15:32:53;;;;;;;;;;;25.80;43.00;;;23.41;45.27;100879.91;12245615;19;19910;-91
2022/07/26 15:36:54;;;;;;;;;;;25.60;42.70;;;23.62;44.92;100902.56;12244529;19;19957;-90
2022/07/26 15:40:56;;;;;;;;;;;25.70;42.70;;;23.50;45.26;100846.09;12244560;19;20325;-92
2022/07/26 15:44:58;;;;;;;;;;;25.80;42.90;;;23.74;45.06;100871.94;12254127;19;19925;-91
2022/07/26 15:48:59;;;;;;;;;;;25.90;42.70;;;23.68;44.96;100855.72;12259390;19;20345;-91
2022/07/26 15:53:00;;;;;;;;;;;26.00;42.70;;;23.71;44.73;100842.06;12256873;19;19936;-91
2022/07/26 15:57:02;;;;;;;;;;;26.10;42.60;;;24.20;44.95;100914.09;12255438;19;19919;-90
2022/07/26 16:01:04;;;;;;;;;;;26.10;42.40;;;24.19;45.27;100928.41;12253992;19;19927;-91
2022/07/26 16:05:05;;;;;;;;;;;26.40;42.60;;;24.00;45.11;100900.25;12261121;19;19919;-90
2022/07/26 16:09:07;;;;;;;;;;;26.20;42.20;;;24.45;45.09;100969.13;12265339;19;19914;-91
2022/07/26 16:13:09;;;;;;;;;;;26.20;42.50;;;24.36;45.29;100947.91;12255285;19;19923;-92
2022/07/26 16:17:10;;;;;;;;;;;26.20;42.40;;;24.59;45.31;100975.59;12260343;19;19915;-91
2022/07/26 16:21:12;;;;;;;;;;;26.20;42.10;;;24.45;45.04;100934.41;12265152;19;19915;-92
2022/07/26 16:25:14;;;;;;;;;;;26.30;42.30;;;24.49;45.13;100940.25;12259783;19;19922;-89
2022/07/26 16:29:16;;;;;;;;;;;26.40;42.20;;;24.63;45.14;100950.25;12262887;19;19914;-91
2022/07/26 16:33:18;;;;;;;;;;;26.40;42.20;;;24.61;44.90;100932.72;12252192;19;19915;-91
2022/07/26 16:37:19;;;;;;;;;;;26.50;42.10;;;24.52;45.04;100915.91;12257847;19;20368;-90
2022/07/26 16:41:21;;;;;;;;;;;26.50;42.10;;;24.43;44.92;100900.84;12258278;19;20254;-91
2022/07/26 16:45:22;;;;;;;;;;;26.50;41.90;;;24.69;44.90;100944.22;12263899;19;19921;-90
2022/07/26 16:49:24;;;;;;;;;;;26.50;41.70;;;24.42;45.05;100912.53;12259844;19;19915;-91
2022/07/26 16:53:25;;;;;;;;;;;26.60;41.70;;;24.05;44.88;100860.56;12255114;19;19932;-91
2022/07/26 16:57:26;;;;;;;;;;;26.60;41.70;;;24.63;44.65;100954.75;12250350;19;19915;-90
2022/07/26 17:01:28;;;;;;;;;;;26.50;41.40;;;24.24;45.10;100902.06;12251627;19;20346;-91
2022/07/26 17:05:29;;;;;;;;;;;26.50;41.40;;;24.48;44.61;100936.75;12260387;19;20024;-91
2022/07/26 17:09:31;;;;;;;;;;;26.40;41.30;;;24.19;44.85;100891.88;12254131;19;19940;-90
2022/07/26 17:13:32;;;;;;;;;;;26.40;41.30;;;24.50;45.00;100955.28;12253091;19;19911;-90
2022/07/26 17:17:33;;;;;;;;;;;26.40;41.40;;;24.12;44.76;100884.75;12250614;19;19915;-90
2022/07/26 17:21:35;;;;;;;;;;;26.40;41.30;;;24.37;44.92;100938.91;12249878;19;19933;-90
2022/07/26 17:25:36;;;;;;;;;;;26.30;41.20;;;24.40;44.89;100950.06;12252713;19;19923;-90
2022/07/26 17:29:37;;;;;;;;;;;26.30;41.10;;;24.38;44.85;100946.75;12254671;19;19918;-91
2022/07/26 17:33:39;;;;;;;;;;;26.30;41.10;;;24.22;44.66;100930.75;12259440;19;19915;-90
2022/07/26 17:37:40;;;;;;;;;;;26.20;41.10;;;24.13;44.88;100927.25;12255072;19;19948;-90
2022/07/26 17:41:47;;;;;;;;;;;26.20;41.00;;;24.07;44.79;100919.94;12255143;19;20333;-91
2022/07/26 17:45:49;;;;;;;;;;;26.20;41.10;;;24.02;44.74;100916.94;12253248;19;20334;-91
2022/07/26 17:49:50;;;;;;;;;;;26.30;41.10;;;24.10;44.63;100926.78;12252808;19;19926;-91
2022/07/26 17:53:52;;;;;;;;;;;26.10;41.00;;;24.38;44.71;100962.75;12250114;19;19943;-91
2022/07/26 17:57:53;;;;;;;;;;;26.20;41.10;;;24.48;44.61;100975.97;12254102;19;20317;-91
2022/07/26 18:01:54;;;;;;;;;;;26.20;41.00;;;24.19;44.48;100926.56;12267795;19;19936;-91
2022/07/26 18:05:56;;;;;;;;;;;26.20;41.00;;;24.16;44.33;100924.25;12270546;19;19945;-90
2022/07/26 18:09:57;;;;;;;;;;;26.20;40.90;;;24.10;44.91;100922.28;12271707;19;19923;-91
2022/07/26 18:13:59;;;;;;;;;;;26.20;40.80;;;24.10;44.65;100919.59;12258210;19;19919;-90